createdAt,value
2018-08-12T00:00:58.625Z,7.03
2018-08-12T00:03:30.638Z,8.88
2018-08-12T00:06:03.620Z,7.62
2018-08-12T00:08:36.867Z,8.27
2018-08-12T00:11:10.632Z,7.30
2018-08-12T00:13:43.608Z,6.90
2018-08-12T00:16:14.885Z,9.48
2018-08-12T00:18:46.893Z,9.18
2018-08-12T00:21:20.106Z,7.30
2018-08-12T00:23:53.316Z,7.75
2018-08-12T00:26:26.353Z,7.55
2018-08-12T00:28:58.215Z,6.78
2018-08-12T00:31:32.826Z,7.87
2018-08-12T00:34:07.213Z,7.12
2018-08-12T00:36:40.308Z,6.65
2018-08-12T00:39:16.263Z,8.15
2018-08-12T00:41:49.387Z,6.87
2018-08-12T00:44:20.911Z,7.60
2018-08-12T00:46:53.908Z,7.12
2018-08-12T00:49:24.957Z,7.00
2018-08-12T00:51:58.089Z,6.70
2018-08-12T00:54:31.600Z,7.43
2018-08-12T00:57:03.871Z,8.13
2018-08-12T00:59:35.415Z,7.75
2018-08-12T01:02:09.931Z,8.15
2018-08-12T01:04:42.933Z,7.78
2018-08-12T01:07:14.436Z,7.30
2018-08-12T01:09:50.293Z,8.90
2018-08-12T01:12:24.131Z,7.60
2018-08-12T01:14:55.850Z,9.63
2018-08-12T01:17:28.742Z,8.48
2018-08-12T01:20:01.755Z,7.65
2018-08-12T01:22:34.779Z,7.85
2018-08-12T01:25:06.493Z,8.02
2018-08-12T01:27:38.165Z,8.15
2018-08-12T01:30:19.518Z,8.77
2018-08-12T01:32:52.829Z,8.30
2018-08-12T01:35:27.668Z,7.87
2018-08-12T01:37:57.178Z,8.77
2018-08-12T01:40:30.603Z,10.57
2018-08-12T01:43:04.106Z,10.02
2018-08-12T01:45:34.183Z,13.38
2018-08-12T01:48:07.364Z,9.25
2018-08-12T01:50:38.882Z,11.43
2018-08-12T01:53:11.719Z,9.40
2018-08-12T01:55:44.159Z,9.73
2018-08-12T01:58:16.081Z,8.73
2018-08-12T02:00:47.686Z,9.75
2018-08-12T02:03:19.293Z,10.93
2018-08-12T02:05:53.271Z,8.80
2018-08-12T02:08:26.350Z,9.80
2018-08-12T02:10:58.108Z,10.25
2018-08-12T02:13:29.859Z,11.98
2018-08-12T02:16:02.924Z,8.57
2018-08-12T02:18:34.399Z,9.13
2018-08-12T02:21:03.737Z,10.30
2018-08-12T02:23:38.634Z,8.88
2018-08-12T02:26:13.255Z,8.82
2018-08-12T02:28:46.189Z,8.82
2018-08-12T02:31:17.887Z,10.32
2018-08-12T02:33:51.127Z,10.88
2018-08-12T02:36:21.388Z,8.25
2018-08-12T02:38:56.630Z,9.75
2018-08-12T02:41:29.938Z,10.20
2018-08-12T02:44:01.433Z,10.77
2018-08-12T02:46:35.103Z,10.63
2018-08-12T02:49:06.609Z,10.45
2018-08-12T02:51:41.150Z,9.32
2018-08-12T02:54:15.568Z,8.18
2018-08-12T02:56:47.576Z,10.52
2018-08-12T02:59:22.191Z,9.40
2018-08-12T03:01:56.767Z,9.75
2018-08-12T03:04:29.798Z,9.57
2018-08-12T03:07:01.980Z,7.37
2018-08-12T03:09:34.976Z,8.43
2018-08-12T03:12:07.954Z,9.68
2018-08-12T03:14:40.935Z,9.90
2018-08-12T03:17:15.500Z,8.77
2018-08-12T03:19:47.497Z,9.77
2018-08-12T03:22:19.254Z,9.55
2018-08-12T03:24:52.193Z,9.15
2018-08-12T03:27:23.814Z,9.50
2018-08-12T03:29:56.776Z,9.60
2018-08-12T03:32:27.411Z,9.80
2018-08-12T03:34:57.590Z,10.40
2018-08-12T03:37:29.108Z,10.38
2018-08-12T03:40:02.273Z,10.00
2018-08-12T03:42:37.196Z,9.68
2018-08-12T03:45:12.826Z,8.98
2018-08-12T03:47:45.798Z,10.60
2018-08-12T03:50:19.317Z,9.85
2018-08-12T03:52:54.828Z,9.82
2018-08-12T03:55:28.503Z,9.75
2018-08-12T03:58:00.156Z,10.02
2018-08-12T04:00:33.307Z,10.90
2018-08-12T04:03:08.184Z,9.82
2018-08-12T04:05:42.617Z,10.52
2018-08-12T04:08:14.177Z,13.65
2018-08-12T04:10:45.628Z,10.70
2018-08-12T04:13:18.670Z,10.38
2018-08-12T04:15:49.313Z,9.95
2018-08-12T04:18:22.458Z,10.85
2018-08-12T04:20:55.732Z,11.88
2018-08-12T04:23:28.835Z,11.45
2018-08-12T04:26:00.574Z,10.93
2018-08-12T04:28:32.095Z,14.32
2018-08-12T04:31:03.639Z,10.63
2018-08-12T04:33:35.509Z,11.07
2018-08-12T04:36:07.091Z,10.77
2018-08-12T04:38:38.892Z,10.80
2018-08-12T04:41:09.362Z,11.93
2018-08-12T04:43:42.612Z,11.50
2018-08-12T04:46:14.150Z,10.98
2018-08-12T04:48:44.163Z,11.65
2018-08-12T04:51:15.819Z,10.82
2018-08-12T04:53:47.465Z,11.12
2018-08-12T04:56:19.051Z,10.70
2018-08-12T04:58:50.657Z,10.75
2018-08-12T05:01:23.147Z,11.30
2018-08-12T05:03:55.038Z,11.27
2018-08-12T05:06:26.571Z,10.77
2018-08-12T05:08:56.585Z,11.68
2018-08-12T05:11:29.572Z,14.15
2018-08-12T05:14:01.130Z,11.30
2018-08-12T05:16:32.768Z,11.63
2018-08-12T05:19:04.452Z,10.90
2018-08-12T05:21:34.500Z,11.65
2018-08-12T05:24:09.980Z,11.77
2018-08-12T05:26:42.974Z,10.60
2018-08-12T05:29:14.503Z,10.63
2018-08-12T05:31:46.021Z,10.77
2018-08-12T05:34:19.332Z,11.38
2018-08-12T05:36:50.910Z,11.18
2018-08-12T05:39:22.936Z,11.05
2018-08-12T05:41:54.361Z,11.70
2018-08-12T05:44:28.805Z,14.40
2018-08-12T05:47:01.788Z,12.02
2018-08-12T05:49:32.311Z,11.75
2018-08-12T05:52:04.149Z,12.82
2018-08-12T05:54:37.926Z,12.23
2018-08-12T05:57:09.718Z,12.60
2018-08-12T05:59:40.002Z,11.95
2018-08-12T06:02:12.893Z,12.00
2018-08-12T06:04:42.897Z,10.43
2018-08-12T06:07:15.963Z,10.98
2018-08-12T06:09:46.044Z,12.13
2018-08-12T06:12:17.750Z,11.27
2018-08-12T06:14:50.960Z,11.48
2018-08-12T06:17:24.130Z,10.73
2018-08-12T06:19:56.975Z,12.00
2018-08-12T06:22:28.572Z,10.30
2018-08-12T06:25:00.779Z,10.90
2018-08-12T06:27:35.394Z,12.70
2018-08-12T06:30:09.015Z,10.32
2018-08-12T06:32:40.578Z,11.50
2018-08-12T06:35:16.119Z,11.27
2018-08-12T06:37:47.636Z,9.40
2018-08-12T06:40:20.916Z,9.63
2018-08-12T06:42:53.998Z,9.20
2018-08-12T06:45:27.887Z,9.73
2018-08-12T06:47:59.474Z,9.05
2018-08-12T06:50:29.694Z,11.45
2018-08-12T06:53:01.547Z,10.07
2018-08-12T06:55:33.195Z,10.80
2018-08-12T06:58:06.172Z,9.95
2018-08-12T07:00:37.590Z,9.73
2018-08-12T07:03:09.009Z,8.80
2018-08-12T07:05:43.482Z,8.93
2018-08-12T07:08:14.844Z,9.60
2018-08-12T07:10:44.934Z,10.20
2018-08-12T07:13:19.301Z,8.73
2018-08-12T07:15:52.226Z,9.05
2018-08-12T07:18:23.659Z,9.80
2018-08-12T07:20:53.770Z,9.20
2018-08-12T07:23:24.919Z,7.47
2018-08-12T07:25:56.367Z,13.82
2018-08-12T07:28:29.420Z,10.73
2018-08-12T07:31:03.783Z,9.38
2018-08-12T07:33:38.290Z,10.25
2018-08-12T07:36:11.245Z,7.53
2018-08-12T07:38:43.353Z,7.53
2018-08-12T07:41:14.774Z,8.07
2018-08-12T07:43:44.895Z,6.93
2018-08-12T07:46:16.443Z,7.05
2018-08-12T07:48:47.937Z,7.22
2018-08-12T07:51:23.998Z,7.25
2018-08-12T07:53:55.469Z,9.23
2018-08-12T07:56:27.014Z,5.97
2018-08-12T07:58:59.111Z,5.65
2018-08-12T08:01:30.616Z,7.05
2018-08-12T08:04:02.134Z,5.47
2018-08-12T08:06:35.117Z,6.05
2018-08-12T08:09:06.981Z,5.35
2018-08-12T08:11:36.980Z,6.93
2018-08-12T08:14:11.535Z,5.80
2018-08-12T08:16:44.488Z,5.43
2018-08-12T08:19:16.137Z,4.90
2018-08-12T08:21:47.751Z,4.25
2018-08-12T08:24:19.296Z,3.87
2018-08-12T08:26:52.210Z,4.00
2018-08-12T08:29:26.771Z,4.18
2018-08-12T08:31:58.454Z,3.80
2018-08-12T08:34:32.647Z,4.20
2018-08-12T08:37:04.114Z,4.60
2018-08-12T08:39:37.058Z,4.57
2018-08-12T08:42:08.855Z,4.15
2018-08-12T08:44:40.254Z,6.28
2018-08-12T08:47:13.127Z,6.90
2018-08-12T08:49:47.567Z,3.25
2018-08-12T08:52:18.932Z,4.25
2018-08-12T08:54:53.248Z,3.58
2018-08-12T08:57:26.070Z,3.10
2018-08-12T08:59:57.659Z,2.35
2018-08-12T09:02:29.368Z,5.50
2018-08-12T09:05:02.269Z,3.03
2018-08-12T09:07:34.801Z,2.33
2018-08-12T09:10:07.639Z,3.65
2018-08-12T09:12:39.615Z,2.80
2018-08-12T09:15:15.047Z,2.83
2018-08-12T09:17:48.648Z,2.40
2018-08-12T09:20:23.011Z,2.35
2018-08-12T09:22:55.950Z,2.25
2018-08-12T09:25:28.735Z,2.60
2018-08-12T09:28:00.345Z,3.40
2018-08-12T09:30:33.312Z,6.53
2018-08-12T09:33:04.720Z,2.20
2018-08-12T09:35:36.180Z,2.70
2018-08-12T09:38:09.065Z,4.30
2018-08-12T09:40:43.515Z,4.07
2018-08-12T09:43:16.367Z,2.20
2018-08-12T09:45:47.632Z,2.87
2018-08-12T09:48:20.737Z,1.90
2018-08-12T09:50:52.106Z,1.92
2018-08-12T09:53:25.117Z,2.75
2018-08-12T09:55:56.996Z,2.42
2018-08-12T09:58:29.448Z,2.80
2018-08-12T10:01:00.971Z,2.17
2018-08-12T10:03:35.540Z,1.95
2018-08-12T10:06:09.968Z,2.40
2018-08-12T10:08:41.363Z,4.05
2018-08-12T10:11:15.847Z,2.50
2018-08-12T10:13:47.202Z,3.42
2018-08-12T10:16:21.980Z,2.10
2018-08-12T10:18:51.986Z,2.37
2018-08-12T10:21:24.883Z,1.83
2018-08-12T10:23:58.459Z,2.42
2018-08-12T10:26:29.882Z,4.78
2018-08-12T10:29:02.779Z,2.35
2018-08-12T10:31:37.012Z,5.15
2018-08-12T10:34:11.471Z,2.87
2018-08-12T10:36:43.017Z,2.05
2018-08-12T10:39:16.022Z,2.95
2018-08-12T10:41:49.229Z,5.40
2018-08-12T10:44:22.255Z,2.22
2018-08-12T10:46:55.080Z,3.85
2018-08-12T10:49:26.646Z,2.22
2018-08-12T10:51:58.259Z,2.30
2018-08-12T10:54:32.633Z,2.10
2018-08-12T10:57:04.021Z,6.57
2018-08-12T10:59:38.699Z,3.05
2018-08-12T11:02:11.764Z,1.83
2018-08-12T11:04:43.157Z,1.52
2018-08-12T11:07:14.843Z,3.10
2018-08-12T11:09:45.250Z,3.22
2018-08-12T11:12:16.666Z,1.60
2018-08-12T11:14:47.781Z,1.75
2018-08-12T11:17:21.385Z,2.22
2018-08-12T11:19:56.121Z,4.12
2018-08-12T11:22:26.069Z,1.73
2018-08-12T11:24:57.696Z,1.87
2018-08-12T11:27:29.427Z,1.60
2018-08-12T11:30:02.394Z,1.85
2018-08-12T11:32:32.756Z,1.87
2018-08-12T11:35:06.227Z,2.42
2018-08-12T11:37:37.613Z,2.47
2018-08-12T11:40:12.043Z,1.50
2018-08-12T11:42:45.048Z,1.45
2018-08-12T11:45:19.269Z,2.53
2018-08-12T11:47:52.073Z,1.37
2018-08-12T11:50:26.389Z,1.30
2018-08-12T11:52:59.180Z,1.90
2018-08-12T11:55:30.623Z,3.08
2018-08-12T11:58:03.390Z,1.52
2018-08-12T12:00:34.791Z,2.20
2018-08-12T12:03:05.111Z,1.55
2018-08-12T12:05:38.879Z,1.50
2018-08-12T12:08:10.344Z,1.67
2018-08-12T12:10:41.690Z,1.58
2018-08-12T12:13:13.010Z,1.60
2018-08-12T12:15:45.810Z,1.95
2018-08-12T12:18:17.656Z,1.80
2018-08-12T12:20:49.221Z,1.35
2018-08-12T12:23:23.511Z,1.58
2018-08-12T12:25:55.299Z,1.52
2018-08-12T12:28:28.782Z,1.75
2018-08-12T12:31:01.690Z,2.60
2018-08-12T12:33:32.632Z,1.55
2018-08-12T12:36:04.035Z,1.70
2018-08-12T12:38:37.484Z,2.80
2018-08-12T12:41:07.443Z,3.50
2018-08-12T12:43:38.801Z,1.40
2018-08-12T12:46:10.189Z,1.23
2018-08-12T12:48:41.562Z,1.73
2018-08-12T12:51:15.346Z,1.75
2018-08-12T12:53:49.735Z,6.97
2018-08-12T12:56:22.618Z,1.35
2018-08-12T12:58:54.573Z,1.52
2018-08-12T13:01:27.423Z,1.67
2018-08-12T13:04:00.702Z,1.42
2018-08-12T13:06:32.113Z,1.50
2018-08-12T13:09:07.028Z,1.48
2018-08-12T13:11:36.958Z,1.80
2018-08-12T13:14:10.288Z,1.87
2018-08-12T13:16:41.660Z,4.00
2018-08-12T13:19:10.975Z,3.17
2018-08-12T13:21:43.569Z,1.55
2018-08-12T13:24:16.991Z,1.08
2018-08-12T13:26:49.779Z,1.42
2018-08-12T13:29:22.620Z,1.30
2018-08-12T13:31:54.425Z,1.65
2018-08-12T13:34:27.772Z,3.72
2018-08-12T13:36:59.259Z,1.70
2018-08-12T13:39:30.590Z,2.42
2018-08-12T13:42:02.729Z,1.40
2018-08-12T13:44:35.638Z,1.50
2018-08-12T13:47:05.667Z,1.60
2018-08-12T13:49:38.039Z,4.85
2018-08-12T13:52:12.713Z,1.52
2018-08-12T13:54:45.632Z,1.52
2018-08-12T13:57:18.442Z,1.40
2018-08-12T13:59:48.835Z,2.30
2018-08-12T14:02:23.464Z,2.05
2018-08-12T14:04:53.380Z,1.65
2018-08-12T14:07:24.782Z,1.42
2018-08-12T14:09:54.861Z,1.55
2018-08-12T14:12:24.796Z,1.92
2018-08-12T14:14:54.017Z,3.03
2018-08-12T14:17:27.264Z,1.58
2018-08-12T14:19:58.790Z,1.35
2018-08-12T14:22:31.950Z,1.30
2018-08-12T14:25:03.458Z,1.75
2018-08-12T14:27:37.778Z,1.80
2018-08-12T14:30:14.267Z,1.33
2018-08-12T14:32:48.413Z,2.20
2018-08-12T14:35:21.570Z,1.30
2018-08-12T14:37:53.405Z,1.73
2018-08-12T14:40:24.668Z,1.73
2018-08-12T14:42:57.639Z,1.60
2018-08-12T14:45:29.431Z,2.08
2018-08-12T14:48:02.296Z,1.20
2018-08-12T14:50:33.681Z,1.75
2018-08-12T14:53:08.072Z,1.27
2018-08-12T14:55:40.290Z,1.40
2018-08-12T14:58:10.921Z,4.65
2018-08-12T15:00:42.390Z,2.00
2018-08-12T15:03:15.239Z,1.40
2018-08-12T15:05:48.677Z,2.00
2018-08-12T15:08:23.147Z,2.45
2018-08-12T15:10:54.222Z,1.37
2018-08-12T15:13:27.177Z,1.50
2018-08-12T15:15:58.632Z,1.27
2018-08-12T15:18:30.178Z,2.90
2018-08-12T15:21:01.598Z,1.65
2018-08-12T15:23:34.430Z,1.75
2018-08-12T15:26:05.977Z,1.42
2018-08-12T15:28:36.172Z,2.03
2018-08-12T15:31:08.958Z,2.33
2018-08-12T15:33:40.485Z,1.37
2018-08-12T15:36:11.209Z,2.37
2018-08-12T15:38:44.946Z,3.05
2018-08-12T15:41:14.839Z,1.92
2018-08-12T15:43:46.188Z,3.15
2018-08-12T15:46:18.991Z,1.50
2018-08-12T15:48:53.207Z,1.30
2018-08-12T15:51:26.473Z,3.97
2018-08-12T15:54:00.820Z,3.17
2018-08-12T15:56:34.340Z,1.58
2018-08-12T15:59:06.880Z,3.10
2018-08-12T16:01:39.717Z,1.65
2018-08-12T16:04:11.126Z,1.50
2018-08-12T16:06:43.949Z,1.45
2018-08-12T16:09:15.463Z,1.50
2018-08-12T16:11:48.303Z,2.30
2018-08-12T16:14:19.217Z,1.40
2018-08-12T16:16:50.643Z,1.67
2018-08-12T16:19:23.707Z,1.87
2018-08-12T16:21:58.056Z,1.50
2018-08-12T16:24:29.991Z,3.45
2018-08-12T16:27:01.344Z,1.70
2018-08-12T16:29:35.565Z,2.55
2018-08-12T16:32:07.095Z,1.67
2018-08-12T16:34:40.066Z,1.50
2018-08-12T16:37:10.305Z,1.92
2018-08-12T16:39:43.118Z,2.35
2018-08-12T16:42:16.024Z,2.28
2018-08-12T16:44:47.443Z,1.50
2018-08-12T16:47:18.709Z,1.60
2018-08-12T16:49:50.464Z,1.70
2018-08-12T16:52:21.695Z,2.03
2018-08-12T16:54:53.209Z,2.87
2018-08-12T16:57:24.667Z,2.10
2018-08-12T16:59:57.485Z,3.10
2018-08-12T17:02:30.329Z,2.10
2018-08-12T17:05:00.368Z,4.50
2018-08-12T17:07:33.374Z,2.87
2018-08-12T17:10:03.714Z,3.90
2018-08-12T17:12:36.766Z,2.28
2018-08-12T17:15:13.220Z,1.65
2018-08-12T17:17:47.602Z,2.28
2018-08-12T17:20:21.879Z,2.45
2018-08-12T17:22:53.334Z,1.70
2018-08-12T17:25:24.752Z,1.65
2018-08-12T17:27:57.721Z,3.92
2018-08-12T17:30:28.172Z,2.62
2018-08-12T17:32:59.730Z,1.73
2018-08-12T17:35:31.143Z,1.83
2018-08-12T17:38:02.508Z,1.98
2018-08-12T17:40:35.350Z,4.47
2018-08-12T17:43:10.088Z,1.65
2018-08-12T17:45:41.550Z,1.70
2018-08-12T17:48:13.183Z,5.85
2018-08-12T17:50:43.193Z,4.12
2018-08-12T17:53:14.838Z,2.08
2018-08-12T17:55:48.774Z,2.87
2018-08-12T17:58:19.568Z,1.80
2018-08-12T18:00:52.832Z,1.95
2018-08-12T18:03:27.533Z,1.73
2018-08-12T18:05:57.606Z,2.12
2018-08-12T18:08:31.901Z,2.95
2018-08-12T18:11:04.123Z,2.37
2018-08-12T18:13:37.340Z,2.67
2018-08-12T18:16:07.417Z,1.62
2018-08-12T18:18:39.405Z,2.20
2018-08-12T18:21:10.974Z,3.35
2018-08-12T18:23:42.777Z,2.85
2018-08-12T18:26:14.188Z,3.08
2018-08-12T18:28:47.160Z,1.83
2018-08-12T18:31:20.009Z,2.92
2018-08-12T18:33:53.298Z,3.55
2018-08-12T18:36:25.152Z,2.37
2018-08-12T18:38:56.594Z,2.05
2018-08-12T18:41:26.911Z,2.62
2018-08-12T18:44:01.346Z,3.97
2018-08-12T18:46:34.311Z,2.58
2018-08-12T18:49:07.296Z,2.22
2018-08-12T18:51:37.234Z,3.20
2018-08-12T18:54:10.162Z,4.05
2018-08-12T18:56:39.608Z,4.40
2018-08-12T18:59:12.575Z,2.72
2018-08-12T19:01:45.571Z,4.30
2018-08-12T19:04:17.007Z,5.60
2018-08-12T19:06:51.482Z,6.10
2018-08-12T19:09:23.491Z,2.67
2018-08-12T19:11:56.832Z,5.07
2018-08-12T19:14:31.376Z,4.43
2018-08-12T19:17:02.009Z,3.17
2018-08-12T19:19:32.007Z,4.32
2018-08-12T19:22:04.490Z,2.60
2018-08-12T19:24:37.341Z,4.15
2018-08-12T19:27:11.706Z,5.30
2018-08-12T19:29:43.206Z,2.12
2018-08-12T19:32:16.204Z,3.42
2018-08-12T19:34:48.070Z,5.05
2018-08-12T19:37:18.194Z,5.60
2018-08-12T19:39:50.418Z,3.55
2018-08-12T19:42:23.468Z,7.20
2018-08-12T19:44:57.878Z,6.80
2018-08-12T19:47:30.858Z,5.15
2018-08-12T19:50:04.426Z,3.12
2018-08-12T19:52:37.664Z,9.13
2018-08-12T19:55:11.022Z,4.10
2018-08-12T19:57:44.399Z,3.00
2018-08-12T20:00:19.231Z,3.42
2018-08-12T20:02:52.140Z,3.12
2018-08-12T20:05:23.457Z,6.60
2018-08-12T20:07:54.903Z,3.08
2018-08-12T20:10:28.118Z,6.80
2018-08-12T20:12:59.541Z,4.72
2018-08-12T20:15:31.097Z,4.57
2018-08-12T20:18:04.525Z,4.78
2018-08-12T20:20:37.450Z,5.75
2018-08-12T20:23:08.914Z,5.97
2018-08-12T20:25:40.637Z,6.90
2018-08-12T20:28:13.646Z,5.80
2018-08-12T20:30:43.631Z,3.30
2018-08-12T20:33:15.164Z,5.18
2018-08-12T20:35:46.796Z,4.65
2018-08-12T20:38:16.718Z,3.60
2018-08-12T20:40:48.178Z,3.30
2018-08-12T20:43:19.676Z,3.62
2018-08-12T20:45:52.603Z,3.87
2018-08-12T20:48:25.580Z,4.37
2018-08-12T20:50:56.984Z,7.35
2018-08-12T20:53:28.520Z,3.75
2018-08-12T20:56:00.528Z,3.78
2018-08-12T20:58:33.320Z,5.28
2018-08-12T21:01:05.784Z,3.25
2018-08-12T21:03:37.313Z,6.40
2018-08-12T21:06:09.407Z,3.85
2018-08-12T21:08:40.917Z,6.37
2018-08-12T21:11:15.244Z,3.22
2018-08-12T21:13:45.139Z,3.75
2018-08-12T21:16:18.091Z,5.20
2018-08-12T21:18:49.507Z,4.28
2018-08-12T21:21:19.389Z,5.22
2018-08-12T21:23:51.800Z,6.43
2018-08-12T21:26:24.822Z,5.70
2018-08-12T21:28:57.718Z,4.10
2018-08-12T21:31:27.821Z,3.67
2018-08-12T21:33:59.797Z,5.35
2018-08-12T21:36:32.932Z,4.65
2018-08-12T21:39:04.405Z,3.72
2018-08-12T21:41:37.415Z,4.53
2018-08-12T21:44:12.211Z,5.53
2018-08-12T21:46:44.175Z,4.53
2018-08-12T21:49:17.050Z,4.40
2018-08-12T21:51:47.055Z,4.32
2018-08-12T21:54:17.687Z,6.55
2018-08-12T21:56:49.177Z,5.03
2018-08-12T21:59:20.680Z,6.70
2018-08-12T22:01:52.957Z,5.05
2018-08-12T22:04:25.897Z,4.30
2018-08-12T22:06:59.084Z,4.12
2018-08-12T22:09:31.023Z,6.35
2018-08-12T22:12:04.595Z,4.60
2018-08-12T22:14:36.111Z,4.50
2018-08-12T22:17:07.550Z,4.15
2018-08-12T22:19:39.700Z,5.43
2018-08-12T22:22:10.918Z,4.57
2018-08-12T22:24:44.294Z,5.75
2018-08-12T22:27:17.242Z,4.82
2018-08-12T22:29:48.695Z,5.35
2018-08-12T22:32:21.609Z,4.10
2018-08-12T22:34:54.619Z,6.00
2018-08-12T22:37:26.013Z,8.13
2018-08-12T22:39:57.482Z,4.15
2018-08-12T22:42:29.277Z,5.00
2018-08-12T22:44:59.182Z,5.93
2018-08-12T22:47:34.450Z,5.10
2018-08-12T22:50:08.289Z,4.78
2018-08-12T22:52:41.360Z,10.00
2018-08-12T22:55:11.435Z,6.32
2018-08-12T22:57:44.527Z,5.47
2018-08-12T23:00:23.065Z,5.28
2018-08-12T23:02:56.010Z,7.95
2018-08-12T23:05:29.340Z,8.10
2018-08-12T23:08:09.784Z,5.47
2018-08-12T23:10:43.370Z,9.60
2018-08-12T23:13:16.265Z,8.02
2018-08-12T23:16:27.767Z,6.30
2018-08-12T23:19:00.664Z,6.35
2018-08-12T23:21:33.566Z,7.80
2018-08-12T23:24:03.520Z,6.12
2018-08-12T23:26:36.404Z,6.75
2018-08-12T23:29:09.445Z,6.97
2018-08-12T23:31:39.490Z,7.70
2018-08-12T23:34:11.835Z,7.25
2018-08-12T23:36:43.288Z,6.80
2018-08-12T23:39:14.019Z,6.62
2018-08-12T23:41:46.375Z,7.05
2018-08-12T23:44:16.285Z,6.62
2018-08-12T23:46:50.600Z,7.68
2018-08-12T23:49:23.622Z,8.48
2018-08-12T23:51:56.518Z,6.47
2018-08-12T23:54:29.524Z,6.57
2018-08-12T23:57:04.045Z,5.90
2018-08-12T23:59:37.464Z,6.72
